Northbrook, Illinois
Current Conditions -  °F | °C
As of 5:52 PM on Thursday 27 Nov 2014 (Local Time) from KPWK Reporting Station
Scattered Clouds Scattered Clouds  
Wind Chill:   Ceiling: Unl
Heat Index: 18°   Visibility: 10mi
Dew Point: 10°   Wind: 7mph
Humidity: 71%   Direction: 330°NNW
Pressure: 30.42"   Gusts: NA
Location:  42.13°N, 87.83°W
Report Text: KPWK 272352Z 33006KT 10SM SCT039 M08/M12 A3042 RMK AO2 SLP313 60000 T10781122 11044 21078 51015
Loading
Personal Weather Stations






























Interactive Weather Map New forecast layout! Learn more

10-Day Weather Forecast

Advertisements
Track Severe Weather on mobile